Terminal Aerodrome Forecast
Issued by NWS

Home | Current Version | Previous Version | Text Only | Print | Product List | Glossary On
Versions: 1 2 3 4 5 6 7 8 9 10 11 12 13 14 15 16
000
FTUS43 KFGF 130000 AAA
TAFTVF
TAF AMD
KTVF 130014Z 1300/1324 33030G37KT P6SM VCTS FEW060CB
     FM130200 32012KT P6SM SCT080
     FM131600 32017G25KT P6SM BKN080
      AMD LTD TO CLD VIS AND WIND=

USA.gov is the U.S. government's official web portal to all federal, state and local government web resources and services.